Weather History for Yankton, SD

Change the Weather History Date:

Friday, September 27, 2013

  Actual Average Record
Temperature  
Mean Temperature 68 °F -  
Max Temperature 80 °F 75 °F 97 °F (1956)
Min Temperature 57 °F 43 °F 23 °F (1984)
Cooling Degree Days 4    
Growing Degree Days 18 (Base 50)    
Moisture  
Dew Point 58 °F    
Average Humidity 64    
Maximum Humidity 88    
Minimum Humidity 45    
Precipitation  
Precipitation 0.00 in - - ()
Sea Level Pressure  
Sea Level Pressure 29.72 in    
Wind  
Wind Speed 13 mph (SSE)    
Max Wind Speed 23 mph    
Max Gust Speed 29 mph    
Visibility 10 miles    
Events Thunderstorm    
Averages and records for this station are not official NWS values.
T = Trace of Precipitation, MM = Missing Value Source: NWS Daily Summary

Daily Weather History Graph

Daily Weather History Graph

Search for Another Location

Airport:

Trip Planner

Search our weather history database for the weather conditions in past years. The results will help you decide how hot, cold, wet, or windy it might be!

Date:

Astronomy

Sep. 27, 2013 Rise Set
Actual Time 7:22 AM CDT 7:17 PM CDT
Civil Twilight 6:54 AM CDT 7:45 PM CDT
Nautical Twilight 6:21 AM CDT 8:18 PM CDT
Astronomical Twilight 5:47 AM CDT 8:51 PM CDT
Moon 12:11 AM CDT (9/27) 3:04 PM CDT (9/27)
Length of Visible Light 12h 51m
Length of Day
11h 54m
Last Quarter, 45% of the Moon is Illuminated
Sep 27
Last Quarter
Oct 4
New
Oct 11
First Quarter
Oct 18
Full
Oct 26
Last Quarter

Hourly Weather History & Observations

Time (CDT) Temp. Heat Index Dew Point Humidity Pressure Visibility Wind Dir Wind Speed Gust Speed Precip Events Conditions
12:15 AM 71.6 °F - 57.2 °F 60% 29.72 in 10.0 mi ESE 11.5 mph - N/A   Clear
12:35 AM 71.6 °F - 57.2 °F 60% 29.72 in 10.0 mi ESE 9.2 mph 18.4 mph N/A   Clear
12:55 AM 71.6 °F - 57.2 °F 60% 29.72 in 10.0 mi SE 12.7 mph 17.3 mph N/A   Clear
1:15 AM 71.6 °F - 59.0 °F 64% 29.72 in 10.0 mi SE 12.7 mph 18.4 mph N/A   Scattered Clouds
1:35 AM 73.4 °F - 57.2 °F 57% 29.71 in 10.0 mi SE 19.6 mph - N/A   Mostly Cloudy
1:55 AM 73.4 °F - 59.0 °F 61% 29.71 in 10.0 mi SE 13.8 mph 23.0 mph N/A   Overcast
2:15 AM 73.4 °F - 59.0 °F 61% 29.71 in 10.0 mi SE 16.1 mph 24.2 mph N/A   Mostly Cloudy
2:35 AM 71.6 °F - 59.0 °F 64% 29.70 in 10.0 mi SE 11.5 mph - N/A   Clear
2:55 AM 71.6 °F - 59.0 °F 64% 29.70 in 10.0 mi SSE 16.1 mph 25.3 mph N/A   Clear
3:15 AM 71.6 °F - 59.0 °F 64% 29.69 in 10.0 mi SE 16.1 mph 19.6 mph N/A   Clear
3:35 AM 71.6 °F - 59.0 °F 64% 29.69 in 10.0 mi SSE 17.3 mph 21.9 mph N/A   Clear
3:55 AM 71.6 °F - 59.0 °F 64% 29.69 in 10.0 mi SE 11.5 mph - N/A   Clear
4:15 AM 71.6 °F - 59.0 °F 64% 29.68 in 10.0 mi SE 12.7 mph 23.0 mph N/A   Clear
4:35 AM 71.6 °F - 59.0 °F 64% 29.68 in 10.0 mi SSE 16.1 mph 24.2 mph N/A   Clear
4:55 AM 71.6 °F - 59.0 °F 64% 29.68 in 10.0 mi SSE 13.8 mph 20.7 mph N/A   Clear
5:15 AM 71.6 °F - 59.0 °F 64% 29.68 in 10.0 mi SE 12.7 mph 25.3 mph N/A   Clear
5:35 AM 71.6 °F - 59.0 °F 64% 29.68 in 10.0 mi SE 13.8 mph 20.7 mph N/A   Clear
5:55 AM 71.6 °F - 59.0 °F 64% 29.68 in 10.0 mi SSE 5.8 mph 17.3 mph N/A   Clear
6:15 AM 71.6 °F - 59.0 °F 64% 29.71 in 10.0 mi Calm Calm - N/A   Clear
6:35 AM 69.8 °F - 59.0 °F 68% 29.69 in 10.0 mi SSE 15.0 mph 24.2 mph N/A   Clear
6:55 AM 71.6 °F - 59.0 °F 64% 29.70 in 10.0 mi South 13.8 mph 20.7 mph N/A   Clear
7:15 AM 69.8 °F - 59.0 °F 68% 29.72 in 10.0 mi SSE 11.5 mph 20.7 mph N/A   Clear
7:35 AM 69.8 °F - 59.0 °F 68% 29.71 in 10.0 mi SE 15.0 mph - N/A   Clear
7:55 AM 69.8 °F - 59.0 °F 68% 29.72 in 10.0 mi SSE 12.7 mph 18.4 mph N/A Thunderstorm Thunderstorm
8:15 AM 68.0 °F - 60.8 °F 78% 29.73 in 9.0 mi SE 10.4 mph - N/A   Mostly Cloudy
8:35 AM 68.0 °F - 60.8 °F 78% 29.71 in 8.0 mi SE 13.8 mph - N/A   Mostly Cloudy
8:55 AM 66.2 °F - 60.8 °F 83% 29.71 in 10.0 mi ESE 15.0 mph 18.4 mph N/A   Mostly Cloudy
9:15 AM 66.2 °F - 60.8 °F 83% 29.72 in 10.0 mi ESE 10.4 mph 16.1 mph N/A   Scattered Clouds
9:35 AM 68.0 °F - 60.8 °F 78% 29.72 in 10.0 mi SE 15.0 mph 20.7 mph N/A   Mostly Cloudy
9:55 AM 69.8 °F - 62.6 °F 78% 29.72 in 10.0 mi SE 16.1 mph - N/A   Scattered Clouds
10:15 AM 71.6 °F - 62.6 °F 73% 29.72 in 10.0 mi SSE 12.7 mph - N/A   Clear
10:35 AM 73.4 °F - 60.8 °F 65% 29.72 in 10.0 mi SSE 18.4 mph 21.9 mph N/A   Clear
10:55 AM 75.2 °F - 60.8 °F 61% 29.72 in 10.0 mi SSE 17.3 mph 26.5 mph N/A   Clear
11:15 AM 75.2 °F - 60.8 °F 61% 29.72 in 10.0 mi South 16.1 mph 25.3 mph N/A   Clear
11:35 AM 78.8 °F - 60.8 °F 54% 29.71 in 10.0 mi SSE 15.0 mph 24.2 mph N/A   Clear
11:55 AM 80.6 °F 81.1 °F 59.0 °F 48% 29.70 in 10.0 mi South 23.0 mph 28.8 mph N/A   Clear
12:15 PM 80.6 °F 81.1 °F 59.0 °F 48% 29.70 in 10.0 mi South 18.4 mph 24.2 mph N/A   Clear
12:35 PM 80.6 °F 81.5 °F 60.8 °F 51% 29.71 in 10.0 mi South 17.3 mph 23.0 mph N/A   Clear
12:55 PM 80.6 °F 81.5 °F 60.8 °F 51% 29.71 in 10.0 mi South 12.7 mph - N/A   Clear
1:15 PM 80.6 °F 81.5 °F 60.8 °F 51% 29.71 in 10.0 mi SSE 19.6 mph 23.0 mph N/A   Clear
1:35 PM 80.6 °F 81.1 °F 59.0 °F 48% 29.71 in 10.0 mi South 12.7 mph 21.9 mph N/A   Clear
1:55 PM 78.8 °F - 60.8 °F 54% 29.72 in 10.0 mi South 11.5 mph 18.4 mph N/A   Partly Cloudy
2:15 PM 78.8 °F - 60.8 °F 54% 29.71 in 10.0 mi South 8.1 mph - N/A   Clear
2:35 PM 80.6 °F 81.5 °F 60.8 °F 51% 29.71 in 10.0 mi South 12.7 mph - N/A   Clear
2:55 PM 80.6 °F 81.1 °F 59.0 °F 48% 29.71 in 10.0 mi South 12.7 mph - N/A   Clear
3:15 PM 80.6 °F 80.8 °F 57.2 °F 45% 29.72 in 10.0 mi South 17.3 mph 21.9 mph N/A   Clear
3:35 PM 80.6 °F 81.1 °F 59.0 °F 48% 29.72 in 10.0 mi SSW 10.4 mph - N/A   Clear
3:55 PM 75.2 °F - 57.2 °F 53% 29.73 in 10.0 mi WNW 17.3 mph - N/A   Clear
4:15 PM 73.4 °F - 57.2 °F 57% 29.73 in 10.0 mi NW 11.5 mph - N/A   Clear
4:35 PM 73.4 °F - 57.2 °F 57% 29.74 in 10.0 mi WNW 15.0 mph - N/A   Clear
4:55 PM 71.6 °F - 55.4 °F 57% 29.74 in 10.0 mi NW 9.2 mph 16.1 mph N/A   Clear
5:15 PM 71.6 °F - 55.4 °F 57% 29.75 in 8.0 mi WNW 12.7 mph - N/A   Clear
5:35 PM 71.6 °F - 55.4 °F 57% 29.74 in 10.0 mi NW 6.9 mph - N/A   Clear
5:55 PM 69.8 °F - 55.4 °F 60% 29.75 in 10.0 mi WNW 11.5 mph - N/A   Clear
6:15 PM 69.8 °F - 55.4 °F 60% 29.75 in 10.0 mi WNW 10.4 mph - N/A   Clear
6:35 PM 68.0 °F - 53.6 °F 60% 29.74 in 10.0 mi NW 10.4 mph - N/A   Clear
6:55 PM 66.2 °F - 53.6 °F 64% 29.73 in 10.0 mi NNW 10.4 mph - N/A   Clear
7:15 PM 66.2 °F - 53.6 °F 64% 29.72 in 10.0 mi NW 6.9 mph - N/A   Clear
7:35 PM 66.2 °F - 53.6 °F 64% 29.72 in 10.0 mi NNW 5.8 mph - N/A   Clear
7:55 PM 66.2 °F - 53.6 °F 64% 29.73 in 10.0 mi NNW 4.6 mph - N/A   Clear
8:15 PM 64.4 °F - 53.6 °F 68% 29.75 in 10.0 mi West 10.4 mph - N/A   Partly Cloudy
8:35 PM 66.2 °F - 51.8 °F 60% 29.76 in 10.0 mi WNW 12.7 mph - N/A   Mostly Cloudy
8:55 PM 64.4 °F - 51.8 °F 64% 29.75 in 10.0 mi NNW 13.8 mph 19.6 mph N/A   Mostly Cloudy
9:15 PM 62.6 °F - 51.8 °F 68% 29.79 in 10.0 mi West 15.0 mph - N/A   Scattered Clouds
9:35 PM 60.8 °F - 51.8 °F 72% 29.76 in 10.0 mi NW 11.5 mph 17.3 mph N/A   Scattered Clouds
9:55 PM 57.2 °F - 51.8 °F 82% 29.73 in 10.0 mi NNW 13.8 mph 18.4 mph N/A   Scattered Clouds
10:15 PM 57.2 °F - 53.6 °F 88% 29.73 in 10.0 mi NNW 11.5 mph 20.7 mph N/A   Partly Cloudy
10:35 PM 57.2 °F - 51.8 °F 82% 29.72 in 10.0 mi North 10.4 mph - N/A   Scattered Clouds
10:55 PM 57.2 °F - 51.8 °F 82% 29.70 in 10.0 mi North 9.2 mph - N/A   Partly Cloudy
11:15 PM 57.2 °F - 51.8 °F 82% 29.69 in 10.0 mi North 4.6 mph - N/A   Partly Cloudy
11:35 PM 57.2 °F - 51.8 °F 82% 29.69 in 10.0 mi North 3.5 mph - N/A   Mostly Cloudy
11:55 PM 57.2 °F - 51.8 °F 82% 29.70 in 10.0 mi WNW 5.8 mph - N/A   Overcast